createdAt,value
2023-01-29T00:00:38.493Z,64.85
2023-01-29T00:03:41.687Z,64.53
2023-01-29T00:06:44.436Z,63.89
2023-01-29T00:09:47.172Z,63.78
2023-01-29T00:12:49.919Z,63.57
2023-01-29T00:15:58.414Z,63.48
2023-01-29T00:19:02.750Z,64.19
2023-01-29T00:22:05.503Z,64.57
2023-01-29T00:25:09.813Z,64.61
2023-01-29T00:28:12.865Z,64.59
2023-01-29T00:31:19.178Z,64.50
2023-01-29T00:34:23.053Z,64.77
2023-01-29T00:37:25.931Z,64.76
2023-01-29T00:40:48.759Z,63.79
2023-01-29T00:44:08.926Z,64.48
2023-01-29T00:47:26.980Z,64.74
2023-01-29T00:50:30.040Z,64.90
2023-01-29T00:53:32.714Z,64.84
2023-01-29T00:56:37.364Z,64.52
2023-01-29T00:59:40.080Z,64.91
2023-01-29T01:03:03.478Z,62.90
2023-01-29T01:06:08.066Z,62.26
2023-01-29T01:09:29.453Z,61.99
2023-01-29T01:12:33.071Z,62.45
2023-01-29T01:15:41.303Z,63.58
2023-01-29T01:18:45.650Z,63.53
2023-01-29T01:21:48.419Z,63.41
2023-01-29T01:24:51.366Z,63.35
2023-01-29T01:27:54.528Z,63.64
2023-01-29T01:30:57.339Z,63.66
2023-01-29T01:34:01.996Z,63.86
2023-01-29T01:37:04.808Z,63.19
2023-01-29T01:40:12.866Z,62.47
2023-01-29T01:43:15.618Z,62.65
2023-01-29T01:46:18.505Z,63.04
2023-01-29T01:49:24.401Z,63.01
2023-01-29T01:52:27.239Z,62.46
2023-01-29T01:55:32.787Z,61.52
2023-01-29T01:58:38.083Z,61.80
2023-01-29T02:01:44.283Z,62.34
2023-01-29T02:05:08.034Z,61.56
2023-01-29T02:08:29.093Z,61.07
2023-01-29T02:11:32.031Z,61.15
2023-01-29T02:14:38.931Z,61.25
2023-01-29T02:17:41.774Z,61.62
2023-01-29T02:20:57.989Z,61.29
2023-01-29T02:24:36.960Z,60.61
2023-01-29T02:28:09.510Z,61.35
2023-01-29T02:31:21.454Z,61.56
2023-01-29T02:34:51.767Z,62.17
2023-01-29T02:38:02.013Z,62.50
2023-01-29T02:41:12.242Z,62.51
2023-01-29T02:44:24.741Z,62.75
2023-01-29T02:47:35.022Z,62.79
2023-01-29T02:50:42.731Z,62.81
2023-01-29T02:53:55.211Z,62.74
2023-01-29T02:57:00.447Z,62.95
2023-01-29T03:00:11.123Z,63.18
2023-01-29T03:03:19.114Z,63.44
2023-01-29T03:06:26.601Z,63.54
2023-01-29T03:09:35.152Z,63.02
2023-01-29T03:12:40.762Z,63.05
2023-01-29T03:15:51.319Z,63.41
2023-01-29T03:18:57.995Z,63.67
2023-01-29T03:22:04.268Z,63.82
2023-01-29T03:25:26.915Z,63.97
2023-01-29T03:28:48.574Z,64.19
2023-01-29T03:32:07.636Z,64.33
2023-01-29T03:35:14.543Z,64.52
2023-01-29T03:38:17.379Z,64.06
2023-01-29T03:41:26.913Z,64.32
2023-01-29T03:44:37.241Z,63.55
2023-01-29T03:47:46.941Z,63.89
2023-01-29T03:50:57.219Z,64.20
2023-01-29T03:54:09.221Z,63.85
2023-01-29T03:57:16.554Z,63.21
2023-01-29T04:00:23.989Z,63.29
2023-01-29T04:03:35.150Z,62.83
2023-01-29T04:06:39.927Z,62.95
2023-01-29T04:09:47.577Z,63.35
2023-01-29T04:12:56.183Z,63.38
2023-01-29T04:16:02.193Z,61.86
2023-01-29T04:19:06.939Z,62.94
2023-01-29T04:22:15.397Z,63.17
2023-01-29T04:25:26.573Z,63.43
2023-01-29T04:28:42.157Z,62.99
2023-01-29T04:31:53.463Z,62.27
2023-01-29T04:35:03.186Z,62.12
2023-01-29T04:38:17.788Z,61.99
2023-01-29T04:41:26.437Z,63.03
2023-01-29T04:44:39.395Z,63.13
2023-01-29T04:47:50.165Z,63.04
2023-01-29T04:51:02.146Z,63.19
2023-01-29T04:54:11.393Z,63.21
2023-01-29T04:57:25.534Z,63.60
2023-01-29T05:00:32.512Z,63.67
2023-01-29T05:03:38.248Z,63.88
2023-01-29T05:06:43.427Z,64.25
2023-01-29T05:09:48.305Z,64.12
2023-01-29T05:12:55.466Z,64.46
2023-01-29T05:16:03.956Z,64.44
2023-01-29T05:19:07.403Z,64.42
2023-01-29T05:22:13.451Z,64.42
2023-01-29T05:25:22.904Z,64.61
2023-01-29T05:28:25.676Z,64.92
2023-01-29T05:31:28.459Z,64.94
2023-01-29T05:34:31.174Z,64.81
2023-01-29T05:37:35.285Z,64.88
2023-01-29T05:40:38.408Z,65.00
2023-01-29T05:43:41.117Z,65.23
2023-01-29T05:46:44.001Z,65.17
2023-01-29T05:49:46.730Z,65.48
2023-01-29T05:52:50.813Z,64.40
2023-01-29T05:55:53.494Z,64.67
2023-01-29T05:58:56.327Z,64.91
2023-01-29T06:01:59.526Z,64.85
2023-01-29T06:05:02.215Z,65.03
2023-01-29T06:08:07.659Z,64.69
2023-01-29T06:11:11.907Z,64.33
2023-01-29T06:14:14.575Z,63.97
2023-01-29T06:17:17.239Z,63.76
2023-01-29T06:20:19.949Z,62.83
2023-01-29T06:23:23.961Z,62.80
2023-01-29T06:26:26.652Z,62.46
2023-01-29T06:29:29.359Z,62.28
2023-01-29T06:32:32.384Z,62.93
2023-01-29T06:35:35.171Z,63.91
2023-01-29T06:38:39.243Z,64.11
2023-01-29T06:41:41.921Z,64.25
2023-01-29T06:44:45.662Z,64.33
2023-01-29T06:47:48.327Z,64.45
2023-01-29T06:50:51.392Z,64.43
2023-01-29T06:53:56.184Z,64.62
2023-01-29T06:56:58.809Z,64.50
2023-01-29T07:00:02.217Z,64.45
2023-01-29T07:03:05.901Z,64.46
2023-01-29T07:06:09.283Z,64.53
2023-01-29T07:09:14.756Z,64.80
2023-01-29T07:12:17.542Z,64.85
2023-01-29T07:15:21.373Z,65.08
2023-01-29T07:18:24.079Z,65.21
2023-01-29T07:21:26.808Z,65.13
2023-01-29T07:24:31.004Z,65.00
2023-01-29T07:27:33.722Z,65.11
2023-01-29T07:30:36.981Z,64.70
2023-01-29T07:33:39.700Z,64.64
2023-01-29T07:36:42.405Z,64.73
2023-01-29T07:39:47.691Z,64.91
2023-01-29T07:42:50.525Z,64.75
2023-01-29T07:45:53.351Z,65.05
2023-01-29T07:48:56.079Z,64.88
2023-01-29T07:51:58.761Z,64.58
2023-01-29T07:55:03.338Z,64.32
2023-01-29T07:58:06.041Z,64.30
2023-01-29T08:01:09.196Z,63.91
2023-01-29T08:04:11.875Z,63.57
2023-01-29T08:07:14.871Z,63.94
2023-01-29T08:10:19.421Z,63.22
2023-01-29T08:13:22.556Z,62.85
2023-01-29T08:16:25.275Z,63.01
2023-01-29T08:19:28.011Z,62.31
2023-01-29T08:22:30.718Z,62.85
2023-01-29T08:25:35.835Z,63.00
2023-01-29T08:28:39.677Z,62.73
2023-01-29T08:31:42.438Z,62.41
2023-01-29T08:34:45.235Z,61.50
2023-01-29T08:37:54.055Z,61.98
2023-01-29T08:40:58.083Z,62.13
2023-01-29T08:44:02.458Z,61.91
2023-01-29T08:47:05.514Z,61.61
2023-01-29T08:50:09.531Z,61.31
2023-01-29T08:53:12.543Z,61.76
2023-01-29T08:56:17.343Z,61.88
2023-01-29T08:59:20.122Z,61.33
2023-01-29T09:02:22.844Z,60.54
2023-01-29T09:05:25.525Z,60.45
2023-01-29T09:08:28.247Z,60.41
2023-01-29T09:11:32.305Z,60.10
2023-01-29T09:14:35.624Z,59.57
2023-01-29T09:17:38.340Z,58.67
2023-01-29T09:20:41.030Z,58.75
2023-01-29T09:23:43.779Z,58.41
2023-01-29T09:26:47.841Z,58.22
2023-01-29T09:29:50.681Z,57.45
2023-01-29T09:32:54.707Z,57.29
2023-01-29T09:35:58.117Z,57.21
2023-01-29T09:39:00.785Z,56.69
2023-01-29T09:42:13.706Z,56.95
2023-01-29T09:45:24.595Z,56.82
2023-01-29T09:48:29.741Z,57.04
2023-01-29T09:51:38.785Z,56.76
2023-01-29T09:54:52.212Z,55.68
2023-01-29T09:57:59.262Z,55.59
2023-01-29T10:01:13.206Z,56.14
2023-01-29T10:04:44.130Z,55.91
2023-01-29T10:08:08.723Z,54.85
2023-01-29T10:11:22.461Z,53.49
2023-01-29T10:14:37.867Z,54.35
2023-01-29T10:17:52.711Z,54.46
2023-01-29T10:21:05.589Z,55.84
2023-01-29T10:24:19.596Z,56.11
2023-01-29T10:27:22.805Z,56.55
2023-01-29T10:30:34.183Z,57.12
2023-01-29T10:33:59.443Z,56.32
2023-01-29T10:37:15.597Z,57.25
2023-01-29T10:40:23.126Z,57.66
2023-01-29T10:43:38.117Z,57.57
2023-01-29T10:47:01.430Z,56.56
2023-01-29T10:50:24.219Z,55.95
2023-01-29T10:53:41.868Z,55.96
2023-01-29T10:57:00.449Z,56.06
2023-01-29T11:00:13.117Z,56.50
2023-01-29T11:03:27.579Z,56.54
2023-01-29T11:06:33.783Z,57.17
2023-01-29T11:09:40.926Z,57.50
2023-01-29T11:12:44.518Z,56.16
2023-01-29T11:15:47.203Z,55.90
2023-01-29T11:18:57.154Z,56.33
2023-01-29T11:22:01.825Z,56.19
2023-01-29T11:25:17.616Z,56.10
2023-01-29T11:28:37.129Z,56.06
2023-01-29T11:31:40.959Z,55.94
2023-01-29T11:35:02.942Z,55.82
2023-01-29T11:38:19.306Z,56.02
2023-01-29T11:41:25.398Z,55.45
2023-01-29T11:44:30.872Z,54.71
2023-01-29T11:47:33.736Z,55.32
2023-01-29T11:50:38.317Z,54.57
2023-01-29T11:53:43.589Z,54.60
2023-01-29T11:56:49.069Z,54.98
2023-01-29T11:59:53.684Z,54.89
2023-01-29T12:03:03.356Z,54.77
2023-01-29T12:06:13.786Z,54.40
2023-01-29T12:09:19.843Z,52.37
2023-01-29T12:12:39.225Z,53.47
2023-01-29T12:15:43.422Z,53.56
2023-01-29T12:18:53.048Z,53.85
2023-01-29T12:22:03.956Z,53.07
2023-01-29T12:25:19.785Z,52.91
2023-01-29T12:28:51.409Z,53.59
2023-01-29T12:32:03.876Z,53.67
2023-01-29T12:35:13.319Z,53.67
2023-01-29T12:38:20.172Z,54.32
2023-01-29T12:41:33.804Z,54.39
2023-01-29T12:44:42.673Z,53.84
2023-01-29T12:47:49.527Z,54.10
2023-01-29T12:50:54.384Z,53.43
2023-01-29T12:54:04.114Z,53.79
2023-01-29T12:57:11.618Z,54.03
2023-01-29T13:00:19.170Z,53.69
2023-01-29T13:03:27.625Z,54.53
2023-01-29T13:06:33.541Z,55.15
2023-01-29T13:09:41.262Z,55.57
2023-01-29T13:12:54.773Z,53.56
2023-01-29T13:16:00.135Z,52.80
2023-01-29T13:19:07.078Z,52.82
2023-01-29T13:22:19.352Z,53.45
2023-01-29T13:25:23.521Z,53.27
2023-01-29T13:28:28.013Z,53.65
2023-01-29T13:31:33.433Z,52.53
2023-01-29T13:34:39.203Z,53.19
2023-01-29T13:37:48.153Z,54.46
2023-01-29T13:40:52.546Z,54.49
2023-01-29T13:43:55.354Z,54.78
2023-01-29T13:47:00.836Z,55.26
2023-01-29T13:50:07.841Z,55.02
2023-01-29T13:53:23.103Z,55.46
2023-01-29T13:56:45.690Z,56.10
2023-01-29T13:59:55.159Z,56.01
2023-01-29T14:03:45.082Z,56.47
2023-01-29T14:06:54.587Z,56.27
2023-01-29T14:10:16.798Z,56.33
2023-01-29T14:13:36.543Z,56.23
2023-01-29T14:16:39.632Z,55.87
2023-01-29T14:19:49.622Z,55.68
2023-01-29T14:22:57.126Z,55.78
2023-01-29T14:26:04.792Z,56.19
2023-01-29T14:32:42.600Z,56.32
2023-01-29T14:32:42.723Z,56.69
2023-01-29T14:35:51.102Z,56.64
2023-01-29T14:38:55.188Z,57.03
2023-01-29T14:41:58.852Z,57.37
2023-01-29T14:45:11.519Z,57.77
2023-01-29T14:48:39.187Z,57.52
2023-01-29T14:51:45.367Z,57.96
2023-01-29T14:54:49.707Z,58.27
2023-01-29T14:57:53.661Z,58.38
2023-01-29T15:00:59.542Z,58.76
2023-01-29T15:04:05.668Z,59.01
2023-01-29T15:07:20.427Z,59.38
2023-01-29T15:10:28.229Z,59.87
2023-01-29T15:13:40.903Z,59.93
2023-01-29T15:16:53.226Z,60.23
2023-01-29T15:19:56.840Z,60.43
2023-01-29T15:23:00.326Z,60.61
2023-01-29T15:26:06.871Z,60.83
2023-01-29T15:29:24.122Z,60.94
2023-01-29T15:32:32.343Z,61.27
2023-01-29T15:35:37.228Z,61.46
2023-01-29T15:38:39.977Z,61.61
2023-01-29T15:41:43.251Z,61.83
2023-01-29T15:44:47.120Z,62.13
2023-01-29T15:47:51.692Z,62.71
2023-01-29T15:50:55.948Z,63.00
2023-01-29T15:54:01.423Z,62.77
2023-01-29T15:57:04.751Z,63.24
2023-01-29T16:00:10.822Z,63.69
2023-01-29T16:03:17.916Z,63.81
2023-01-29T16:06:22.463Z,64.22
2023-01-29T16:09:27.211Z,64.30
2023-01-29T16:12:29.916Z,64.77
2023-01-29T16:15:34.545Z,65.21
2023-01-29T16:18:54.167Z,65.33
2023-01-29T16:22:04.814Z,65.68
2023-01-29T16:25:12.449Z,65.83
2023-01-29T16:28:15.419Z,66.26
2023-01-29T16:31:23.297Z,66.37
2023-01-29T16:34:30.240Z,66.63
2023-01-29T16:37:36.295Z,67.18
2023-01-29T16:40:40.854Z,67.40
2023-01-29T16:43:48.974Z,67.90
2023-01-29T16:46:52.235Z,67.84
2023-01-29T16:49:58.074Z,68.11
2023-01-29T16:53:03.153Z,68.78
2023-01-29T16:56:08.263Z,68.95
2023-01-29T16:59:19.251Z,68.79
2023-01-29T17:02:26.676Z,69.43
2023-01-29T17:05:33.129Z,70.53
2023-01-29T17:08:36.281Z,70.16
2023-01-29T17:11:41.984Z,70.81
2023-01-29T17:14:53.832Z,71.66
2023-01-29T17:17:56.595Z,72.20
2023-01-29T17:21:00.715Z,72.62
2023-01-29T17:24:03.512Z,72.36
2023-01-29T17:27:06.317Z,72.29
2023-01-29T17:30:15.349Z,72.34
2023-01-29T17:33:21.771Z,72.27
2023-01-29T17:36:26.821Z,72.38
2023-01-29T17:39:29.527Z,72.50
2023-01-29T17:42:32.142Z,72.69
2023-01-29T17:45:35.246Z,72.66
2023-01-29T17:48:37.959Z,72.68
2023-01-29T17:51:42.018Z,72.72
2023-01-29T17:54:44.718Z,73.13
2023-01-29T17:57:47.431Z,73.58
2023-01-29T18:00:51.099Z,73.58
2023-01-29T18:03:54.158Z,73.74
2023-01-29T18:06:58.936Z,73.90
2023-01-29T18:10:02.139Z,73.87
2023-01-29T18:13:04.821Z,73.82
2023-01-29T18:16:08.113Z,73.80
2023-01-29T18:19:15.782Z,73.94
2023-01-29T18:22:19.884Z,73.72
2023-01-29T18:25:24.729Z,74.28
2023-01-29T18:28:28.226Z,74.15
2023-01-29T18:31:31.050Z,74.10
2023-01-29T18:34:33.808Z,74.24
2023-01-29T18:37:37.833Z,73.99
2023-01-29T18:40:40.739Z,74.28
2023-01-29T18:43:44.169Z,74.40
2023-01-29T18:46:47.028Z,74.57
2023-01-29T18:49:49.705Z,74.61
2023-01-29T18:52:54.027Z,75.09
2023-01-29T18:55:58.531Z,75.26
2023-01-29T18:59:03.412Z,75.50
2023-01-29T19:02:08.260Z,75.63
2023-01-29T19:05:11.188Z,75.79
2023-01-29T19:08:15.211Z,75.82
2023-01-29T19:11:18.444Z,75.73
2023-01-29T19:14:21.267Z,75.79
2023-01-29T19:17:24.087Z,75.83
2023-01-29T19:20:26.846Z,76.21
2023-01-29T19:23:30.899Z,76.49
2023-01-29T19:26:34.163Z,76.41
2023-01-29T19:29:37.151Z,76.75
2023-01-29T19:32:39.913Z,76.73
2023-01-29T19:35:45.330Z,76.75
2023-01-29T19:38:49.394Z,76.62
2023-01-29T19:41:52.064Z,77.02
2023-01-29T19:44:54.962Z,76.95
2023-01-29T19:47:58.923Z,77.17
2023-01-29T19:51:05.217Z,77.13
2023-01-29T19:54:10.202Z,77.23
2023-01-29T19:57:12.976Z,77.17
2023-01-29T20:00:17.582Z,77.45
2023-01-29T20:03:20.353Z,77.51
2023-01-29T20:06:25.260Z,78.06
2023-01-29T20:09:30.336Z,78.86
2023-01-29T20:12:33.507Z,79.41
2023-01-29T20:15:36.315Z,79.57
2023-01-29T20:18:39.034Z,79.15
2023-01-29T20:21:42.232Z,79.23
2023-01-29T20:24:49.507Z,79.04
2023-01-29T20:27:52.301Z,78.92
2023-01-29T20:30:56.459Z,78.91
2023-01-29T20:33:59.302Z,79.01
2023-01-29T20:37:02.033Z,79.03
2023-01-29T20:40:07.152Z,78.96
2023-01-29T20:43:09.844Z,78.91
2023-01-29T20:46:13.094Z,79.00
2023-01-29T20:49:17.265Z,79.53
2023-01-29T20:52:19.977Z,80.00
2023-01-29T20:55:24.147Z,80.00
2023-01-29T20:58:27.219Z,80.12
2023-01-29T21:01:30.089Z,80.63
2023-01-29T21:04:32.726Z,80.72
2023-01-29T21:07:36.171Z,80.97
2023-01-29T21:10:41.934Z,80.94
2023-01-29T21:13:46.907Z,80.87
2023-01-29T21:16:49.631Z,81.38
2023-01-29T21:19:52.341Z,80.89
2023-01-29T21:22:55.164Z,80.90
2023-01-29T21:26:03.681Z,81.10
2023-01-29T21:29:06.414Z,80.79
2023-01-29T21:32:11.629Z,80.71
2023-01-29T21:35:14.899Z,80.63
2023-01-29T21:38:17.654Z,80.61
2023-01-29T21:41:42.771Z,80.50
2023-01-29T21:44:45.468Z,80.73
2023-01-29T21:47:48.252Z,80.48
2023-01-29T21:50:51.300Z,80.70
2023-01-29T21:53:54.028Z,80.54
2023-01-29T21:56:58.146Z,80.54
2023-01-29T22:00:01.021Z,80.50
2023-01-29T22:03:04.007Z,81.01
2023-01-29T22:06:07.648Z,81.35
2023-01-29T22:09:11.263Z,81.25
2023-01-29T22:12:15.316Z,81.41
2023-01-29T22:15:18.099Z,81.27
2023-01-29T22:18:21.254Z,81.80
2023-01-29T22:21:24.162Z,81.60
2023-01-29T22:24:27.024Z,81.66
2023-01-29T22:27:32.785Z,81.86
2023-01-29T22:30:35.523Z,81.34
2023-01-29T22:33:38.730Z,81.43
2023-01-29T22:36:41.755Z,81.44
2023-01-29T22:39:44.425Z,81.39
2023-01-29T22:42:48.540Z,81.33
2023-01-29T22:45:51.728Z,81.31
2023-01-29T22:48:55.222Z,80.69
2023-01-29T22:52:10.881Z,80.65
2023-01-29T22:55:14.352Z,80.63
2023-01-29T22:58:18.411Z,80.52
2023-01-29T23:01:22.753Z,80.18
2023-01-29T23:04:25.506Z,79.95
2023-01-29T23:07:28.254Z,79.92
2023-01-29T23:10:30.943Z,79.84
2023-01-29T23:13:35.074Z,79.58
2023-01-29T23:16:37.814Z,79.54
2023-01-29T23:19:40.531Z,79.34
2023-01-29T23:22:43.232Z,78.98
2023-01-29T23:26:14.883Z,78.79
2023-01-29T23:29:19.134Z,78.54
2023-01-29T23:32:22.795Z,78.37
2023-01-29T23:35:25.519Z,78.54
2023-01-29T23:38:28.173Z,78.12
2023-01-29T23:41:30.887Z,78.37
2023-01-29T23:44:35.580Z,78.01
2023-01-29T23:47:38.415Z,78.07
2023-01-29T23:50:41.116Z,78.16
2023-01-29T23:53:43.831Z,78.40
2023-01-29T23:56:46.989Z,78.09
2023-01-29T23:59:51.043Z,77.87
